Longmont, CO (80501)

11:21 PM MDT die 20o October, anno 2014 (GMT -0600)
Northridge Elementary School | Change Station
CLOSE
Current Station
Personal Weather Stations
Location: Longmont, CO
Elevation: 5043 ft
Nearby Weather Stations

Elev 5043 ft 40.19 °N, 105.11 °W | Updated 23 seconds ago

Serena
Serena
50.7 °F
Feels Like 50.7 °F
N
4.0
Ventus Variabilis Ventus from Inter Aquilonem et Zephyrus
Gusts 4.0 mph

Hodie
High -- | Low -- °F
--% Chance of Precip.
Yesterday
High -- | Low -- °F
Precip. -- in
7:16 AM 6:13 PM
Waning Crescent, 7% visible
Pressio 30.05 in
Visibilitas 7.0 milia passuum
Clouds Serena
Frigus in quo Ros apparet 42 °F
Umor 73%
Rainfall 0.00 in
Snow Depth Not available.
UV 0.0 out of 12
Pollen 2.90 out of 12
Air Quality Not available.
Flu Activity Not available.
METAR KLMO 210513Z AUTO 00000KT 7SM CLR 10/06 A3005 RMK AO2 T01000060

More Conditions Fewer Conditions

Pressio 30.05 in
Visibilitas 7.0 milia passuum
Clouds Serena
Frigus in quo Ros apparet 42 °F
Umor 73%
Rainfall 0.00 in
Snow Depth Not available.
UV 0.0 out of 12
Pollen 2.90 out of 12
Air Quality Not available.
Flu Activity Not available.
METAR KLMO 210513Z AUTO 00000KT 7SM CLR 10/06 A3005 RMK AO2 T01000060

More Conditions Fewer Conditions

10-Day Weather Forecast

Almanac

Astronomy

Oct. 20, 2014 Rise Set
Actual Time 7:16 AM MDT 6:13 PM MDT
Civil Twilight 6:48 AM MDT 6:40 PM MDT
Nautical Twilight 6:17 AM MDT 7:12 PM MDT
Astronomical Twilight 5:45 AM MDT 7:43 PM MDT
Moon 4:06 AM MDT (10/20) 4:37 PM MDT (10/20)
Length Of Visible Light 11h 51m
Length of Day
10h 56m
Tomorrow will be 2m 29s shorter.
Waning Crescent, 7% of the Moon is Illuminated
Oct 21
Waning Crescent
Oct 23
New
Oct 30
First Quarter
Nov 6
Full
Nov 14
Last Quarter

Yesterday's Extremes

State Highs State Lows

Community

WunderPhotos

Upload Photos

1,763,612 photos uploaded!

Nearby

Snow Depth

Station Depth Elevation
Copeland Lake 0 in 8600 ft
Wild Basin 0 in 9560 ft
Bear Lake 0 in 9500 ft
Berthoud Summit 0 in 11300 ft
Echo Lake 0 in 10600 ft

Earthquake Activity

City Distance Mag. Time & Date
No recent earthquake activity has been reported nearby.
Minimum magnitude displayed is 2.5.

Coastal Water Temperatures

Locus Calor
No Stations Reporting

Nearby Weather Stations